createdAt,value
2018-01-23T00:00:10.235Z,49.28
2018-01-23T00:00:41.866Z,49.18
2018-01-23T00:01:13.495Z,49.20
2018-01-23T00:01:45.118Z,49.25
2018-01-23T00:02:16.746Z,49.46
2018-01-23T00:02:48.374Z,49.60
2018-01-23T00:03:20.065Z,49.66
2018-01-23T00:03:51.685Z,49.79
2018-01-23T00:04:23.305Z,49.81
2018-01-23T00:04:54.934Z,49.83
2018-01-23T00:05:26.594Z,49.86
2018-01-23T00:05:58.505Z,49.98
2018-01-23T00:06:30.126Z,49.96
2018-01-23T00:07:01.750Z,50.01
2018-01-23T00:07:33.381Z,49.98
2018-01-23T00:08:05.001Z,49.98
2018-01-23T00:08:36.634Z,50.02
2018-01-23T00:09:08.258Z,50.00
2018-01-23T00:09:39.881Z,50.00
2018-01-23T00:10:11.506Z,50.00
2018-01-23T00:10:43.169Z,49.96
2018-01-23T00:11:14.794Z,49.93
2018-01-23T00:11:46.458Z,49.97
2018-01-23T00:12:18.082Z,49.98
2018-01-23T00:12:49.718Z,50.15
2018-01-23T00:13:21.341Z,50.22
2018-01-23T00:13:52.970Z,50.17
2018-01-23T00:14:24.595Z,50.15
2018-01-23T00:14:56.218Z,50.28
2018-01-23T00:15:27.836Z,50.21
2018-01-23T00:15:59.489Z,50.33
2018-01-23T00:16:31.154Z,50.33
2018-01-23T00:17:02.779Z,50.54
2018-01-23T00:17:34.454Z,50.40
2018-01-23T00:18:06.090Z,50.49
2018-01-23T00:18:37.718Z,50.41
2018-01-23T00:19:09.346Z,50.51
2018-01-23T00:19:40.969Z,50.69
2018-01-23T00:20:12.598Z,50.55
2018-01-23T00:20:44.226Z,50.59
2018-01-23T00:21:15.890Z,50.49
2018-01-23T00:21:47.514Z,50.40
2018-01-23T00:22:19.174Z,50.54
2018-01-23T00:22:50.829Z,50.54
2018-01-23T00:23:22.453Z,50.65
2018-01-23T00:23:54.074Z,50.54
2018-01-23T00:24:25.705Z,50.67
2018-01-23T00:24:57.335Z,50.73
2018-01-23T00:25:28.966Z,50.58
2018-01-23T00:26:00.592Z,50.71
2018-01-23T00:26:32.217Z,50.68
2018-01-23T00:27:03.842Z,50.67
2018-01-23T00:27:35.689Z,50.83
2018-01-23T00:28:07.313Z,50.69
2018-01-23T00:28:38.937Z,50.70
2018-01-23T00:29:10.557Z,50.64
2018-01-23T00:29:42.186Z,50.54
2018-01-23T00:30:13.813Z,50.62
2018-01-23T00:30:45.446Z,50.70
2018-01-23T00:31:17.074Z,50.65
2018-01-23T00:31:48.693Z,50.71
2018-01-23T00:32:20.326Z,50.77
2018-01-23T00:32:51.998Z,50.66
2018-01-23T00:33:23.629Z,50.62
2018-01-23T00:33:55.253Z,50.79
2018-01-23T00:34:26.878Z,50.77
2018-01-23T00:34:58.501Z,50.74
2018-01-23T00:35:30.166Z,50.71
2018-01-23T00:36:01.795Z,50.75
2018-01-23T00:36:33.417Z,50.71
2018-01-23T00:37:05.050Z,50.64
2018-01-23T00:37:36.678Z,50.67
2018-01-23T00:38:08.334Z,50.77
2018-01-23T00:38:39.957Z,50.78
2018-01-23T00:39:11.577Z,50.75
2018-01-23T00:39:43.201Z,50.72
2018-01-23T00:40:14.833Z,50.74
2018-01-23T00:40:46.461Z,50.73
2018-01-23T00:41:18.086Z,50.75
2018-01-23T00:41:49.713Z,50.72
2018-01-23T00:42:21.333Z,50.67
2018-01-23T00:42:52.958Z,50.79
2018-01-23T00:43:24.586Z,50.72
2018-01-23T00:43:56.209Z,50.75
2018-01-23T00:44:27.881Z,50.80
2018-01-23T00:44:59.509Z,50.92
2018-01-23T00:45:31.129Z,50.87
2018-01-23T00:46:02.759Z,50.91
2018-01-23T00:46:34.386Z,50.91
2018-01-23T00:47:06.014Z,50.99
2018-01-23T00:47:37.634Z,51.11
2018-01-23T00:48:09.257Z,51.12
2018-01-23T00:48:40.877Z,51.06
2018-01-23T00:49:12.537Z,51.16
2018-01-23T00:49:44.161Z,51.18
2018-01-23T00:50:15.783Z,51.14
2018-01-23T00:50:47.405Z,51.09
2018-01-23T00:51:19.031Z,51.15
2018-01-23T00:51:50.658Z,51.13
2018-01-23T00:52:22.321Z,51.19
2018-01-23T00:52:53.941Z,51.30
2018-01-23T00:53:25.562Z,51.23
2018-01-23T00:53:57.181Z,51.23
2018-01-23T00:54:28.850Z,51.31
2018-01-23T00:55:00.477Z,51.32
2018-01-23T00:55:32.102Z,51.33
2018-01-23T00:56:03.721Z,51.43
2018-01-23T00:56:35.341Z,51.51
2018-01-23T00:57:06.970Z,51.45
2018-01-23T00:57:38.601Z,51.58
2018-01-23T00:58:10.223Z,51.60
2018-01-23T00:58:41.854Z,51.62
2018-01-23T00:59:13.510Z,51.69
2018-01-23T00:59:45.177Z,51.69
2018-01-23T01:00:16.797Z,51.67
2018-01-23T01:00:48.419Z,52.14
2018-01-23T01:01:20.081Z,52.83
2018-01-23T01:01:51.711Z,52.32
2018-01-23T01:02:23.339Z,52.74
2018-01-23T01:02:54.961Z,52.56
2018-01-23T01:03:26.590Z,52.74
2018-01-23T01:03:58.210Z,52.48
2018-01-23T01:04:29.829Z,52.68
2018-01-23T01:05:01.458Z,52.48
2018-01-23T01:05:33.318Z,52.48
2018-01-23T01:06:04.946Z,52.46
2018-01-23T01:06:36.577Z,52.34
2018-01-23T01:07:08.202Z,52.95
2018-01-23T01:07:39.826Z,52.90
2018-01-23T01:08:11.454Z,53.25
2018-01-23T01:08:43.077Z,52.87
2018-01-23T01:09:14.701Z,53.12
2018-01-23T01:09:46.321Z,53.18
2018-01-23T01:10:17.950Z,52.74
2018-01-23T01:10:49.618Z,53.17
2018-01-23T01:11:21.250Z,53.12
2018-01-23T01:11:52.873Z,52.92
2018-01-23T01:12:24.537Z,53.09
2018-01-23T01:12:56.157Z,53.18
2018-01-23T01:13:27.785Z,53.13
2018-01-23T01:13:59.411Z,53.09
2018-01-23T01:14:31.033Z,53.17
2018-01-23T01:15:02.662Z,53.21
2018-01-23T01:15:34.285Z,53.44
2018-01-23T01:16:05.905Z,53.67
2018-01-23T01:16:37.533Z,53.82
2018-01-23T01:17:09.193Z,53.69
2018-01-23T01:17:40.857Z,53.94
2018-01-23T01:18:12.482Z,53.88
2018-01-23T01:18:44.151Z,53.72
2018-01-23T01:19:15.782Z,53.68
2018-01-23T01:19:47.405Z,53.43
2018-01-23T01:20:19.034Z,53.62
2018-01-23T01:20:50.657Z,52.95
2018-01-23T01:21:22.284Z,52.91
2018-01-23T01:21:53.913Z,53.00
2018-01-23T01:22:25.538Z,53.02
2018-01-23T01:22:57.157Z,52.96
2018-01-23T01:23:28.821Z,52.80
2018-01-23T01:24:00.447Z,52.88
2018-01-23T01:24:32.073Z,52.81
2018-01-23T01:25:03.693Z,52.91
2018-01-23T01:25:35.317Z,53.05
2018-01-23T01:26:06.950Z,53.09
2018-01-23T01:26:38.622Z,53.08
2018-01-23T01:27:10.290Z,53.13
2018-01-23T01:27:41.917Z,53.10
2018-01-23T01:28:13.550Z,53.09
2018-01-23T01:28:45.174Z,53.11
2018-01-23T01:29:16.802Z,53.03
2018-01-23T01:29:48.425Z,53.10
2018-01-23T01:30:20.053Z,53.06
2018-01-23T01:30:51.674Z,53.06
2018-01-23T01:31:23.302Z,53.01
2018-01-23T01:31:54.928Z,53.01
2018-01-23T01:32:26.553Z,53.19
2018-01-23T01:32:58.186Z,53.15
2018-01-23T01:33:29.806Z,53.08
2018-01-23T01:34:01.474Z,53.06
2018-01-23T01:34:33.286Z,53.12
2018-01-23T01:35:04.913Z,53.13
2018-01-23T01:35:36.533Z,53.06
2018-01-23T01:36:08.161Z,53.04
2018-01-23T01:36:39.790Z,52.87
2018-01-23T01:37:11.413Z,52.91
2018-01-23T01:37:43.045Z,52.98
2018-01-23T01:38:14.666Z,52.88
2018-01-23T01:38:46.293Z,52.87
2018-01-23T01:39:17.941Z,52.89
2018-01-23T01:39:49.693Z,52.92
2018-01-23T01:40:21.321Z,52.89
2018-01-23T01:40:52.941Z,52.85
2018-01-23T01:41:24.570Z,52.75
2018-01-23T01:41:56.198Z,52.92
2018-01-23T01:42:27.830Z,52.82
2018-01-23T01:42:59.454Z,52.86
2018-01-23T01:43:31.090Z,52.91
2018-01-23T01:44:02.723Z,52.75
2018-01-23T01:44:34.346Z,52.82
2018-01-23T01:45:06.014Z,52.80
2018-01-23T01:45:37.634Z,52.82
2018-01-23T01:46:09.256Z,52.70
2018-01-23T01:46:40.921Z,52.76
2018-01-23T01:47:12.541Z,52.69
2018-01-23T01:47:44.161Z,52.76
2018-01-23T01:48:15.785Z,52.77
2018-01-23T01:48:47.406Z,52.95
2018-01-23T01:49:19.029Z,52.94
2018-01-23T01:49:50.654Z,53.01
2018-01-23T01:50:22.277Z,53.16
2018-01-23T01:50:53.949Z,53.27
2018-01-23T01:51:25.580Z,53.27
2018-01-23T01:51:57.211Z,53.59
2018-01-23T01:52:28.843Z,53.32
2018-01-23T01:53:00.521Z,53.62
2018-01-23T01:53:32.145Z,53.41
2018-01-23T01:54:03.765Z,53.60
2018-01-23T01:54:35.385Z,53.69
2018-01-23T01:55:07.014Z,53.62
2018-01-23T01:55:38.637Z,53.61
2018-01-23T01:56:10.258Z,53.80
2018-01-23T01:56:41.882Z,53.73
2018-01-23T01:57:13.505Z,53.71
2018-01-23T01:57:45.138Z,53.97
2018-01-23T01:58:16.801Z,53.88
2018-01-23T01:58:48.425Z,53.77
2018-01-23T01:59:20.057Z,53.95
2018-01-23T01:59:51.677Z,54.12
2018-01-23T02:00:23.301Z,54.25
2018-01-23T02:00:54.926Z,54.24
2018-01-23T02:01:26.554Z,54.20
2018-01-23T02:01:58.181Z,54.29
2018-01-23T02:02:29.810Z,54.26
2018-01-23T02:03:01.438Z,54.30
2018-01-23T02:03:33.104Z,54.39
2018-01-23T02:04:04.729Z,54.41
2018-01-23T02:04:36.389Z,54.66
2018-01-23T02:05:08.009Z,54.35
2018-01-23T02:05:39.630Z,54.74
2018-01-23T02:06:11.257Z,54.72
2018-01-23T02:06:42.886Z,54.47
2018-01-23T02:07:14.517Z,54.64
2018-01-23T02:07:46.146Z,54.67
2018-01-23T02:08:17.826Z,54.68
2018-01-23T02:08:49.445Z,54.96
2018-01-23T02:09:21.070Z,54.88
2018-01-23T02:09:52.698Z,55.06
2018-01-23T02:10:24.324Z,54.90
2018-01-23T02:10:55.945Z,54.96
2018-01-23T02:11:27.569Z,55.23
2018-01-23T02:11:59.197Z,55.44
2018-01-23T02:12:30.821Z,55.41
2018-01-23T02:13:02.449Z,55.32
2018-01-23T02:13:34.120Z,55.65
2018-01-23T02:14:05.750Z,55.59
2018-01-23T02:14:37.377Z,55.38
2018-01-23T02:15:09.002Z,55.51
2018-01-23T02:15:40.621Z,55.47
2018-01-23T02:16:12.241Z,55.56
2018-01-23T02:16:43.866Z,55.65
2018-01-23T02:17:15.493Z,56.05
2018-01-23T02:17:47.165Z,55.83
2018-01-23T02:18:18.795Z,55.80
2018-01-23T02:18:50.420Z,55.64
2018-01-23T02:19:22.041Z,55.78
2018-01-23T02:19:53.666Z,55.79
2018-01-23T02:20:25.289Z,55.86
2018-01-23T02:20:56.914Z,55.59
2018-01-23T02:21:28.533Z,55.79
2018-01-23T02:22:00.162Z,55.74
2018-01-23T02:22:31.781Z,55.71
2018-01-23T02:23:03.449Z,55.82
2018-01-23T02:23:35.078Z,55.59
2018-01-23T02:24:06.708Z,55.68
2018-01-23T02:24:38.329Z,55.59
2018-01-23T02:25:09.957Z,55.54
2018-01-23T02:25:41.586Z,55.58
2018-01-23T02:26:13.209Z,55.93
2018-01-23T02:26:44.838Z,55.69
2018-01-23T02:27:16.505Z,55.70
2018-01-23T02:27:48.134Z,55.53
2018-01-23T02:28:19.757Z,55.48
2018-01-23T02:28:51.386Z,55.65
2018-01-23T02:29:23.014Z,55.81
2018-01-23T02:29:54.637Z,55.71
2018-01-23T02:30:26.270Z,55.65
2018-01-23T02:30:57.890Z,55.63
2018-01-23T02:31:29.514Z,55.89
2018-01-23T02:32:01.133Z,55.63
2018-01-23T02:32:32.758Z,55.67
2018-01-23T02:33:04.382Z,55.77
2018-01-23T02:33:36.070Z,55.83
2018-01-23T02:34:07.706Z,55.89
2018-01-23T02:34:39.330Z,55.87
2018-01-23T02:35:10.961Z,55.65
2018-01-23T02:35:42.586Z,55.77
2018-01-23T02:36:14.214Z,55.81
2018-01-23T02:36:45.838Z,55.59
2018-01-23T02:37:17.474Z,55.97
2018-01-23T02:37:49.361Z,56.39
2018-01-23T02:38:20.981Z,56.21
2018-01-23T02:38:52.609Z,56.50
2018-01-23T02:39:24.234Z,56.10
2018-01-23T02:39:55.858Z,56.22
2018-01-23T02:40:27.482Z,55.87
2018-01-23T02:40:59.106Z,56.03
2018-01-23T02:41:30.726Z,55.97
2018-01-23T02:42:02.356Z,56.08
2018-01-23T02:42:33.978Z,56.05
2018-01-23T02:43:05.616Z,56.00
2018-01-23T02:43:37.241Z,55.89
2018-01-23T02:44:08.901Z,56.34
2018-01-23T02:44:40.558Z,56.06
2018-01-23T02:45:12.234Z,56.18
2018-01-23T02:45:43.862Z,55.79
2018-01-23T02:46:15.484Z,55.76
2018-01-23T02:46:47.114Z,55.82
2018-01-23T02:47:18.745Z,55.84
2018-01-23T02:47:50.365Z,55.68
2018-01-23T02:48:21.992Z,55.68
2018-01-23T02:48:53.626Z,55.82
2018-01-23T02:49:25.254Z,55.78
2018-01-23T02:49:56.874Z,55.88
2018-01-23T02:50:28.542Z,55.69
2018-01-23T02:51:00.166Z,55.90
2018-01-23T02:51:31.793Z,55.68
2018-01-23T02:52:03.417Z,55.87
2018-01-23T02:52:35.046Z,55.88
2018-01-23T02:53:06.669Z,55.98
2018-01-23T02:53:38.289Z,55.53
2018-01-23T02:54:09.909Z,56.01
2018-01-23T02:54:41.547Z,55.74
2018-01-23T02:55:13.169Z,55.91
2018-01-23T02:55:44.834Z,55.87
2018-01-23T02:56:16.458Z,55.64
2018-01-23T02:56:48.085Z,55.75
2018-01-23T02:57:19.714Z,55.76
2018-01-23T02:57:51.338Z,55.68
2018-01-23T02:58:22.978Z,55.72
2018-01-23T02:58:54.601Z,55.58
2018-01-23T02:59:26.234Z,55.85
2018-01-23T02:59:57.862Z,55.79
2018-01-23T03:00:29.521Z,56.04
2018-01-23T03:01:01.146Z,55.88
2018-01-23T03:01:32.775Z,55.76
2018-01-23T03:02:04.418Z,55.85
2018-01-23T03:02:36.041Z,55.82
2018-01-23T03:03:07.666Z,55.83
2018-01-23T03:03:39.288Z,55.78
2018-01-23T03:04:10.953Z,55.89
2018-01-23T03:04:42.633Z,55.62
2018-01-23T03:05:14.256Z,55.72
2018-01-23T03:05:45.882Z,55.63
2018-01-23T03:06:17.509Z,55.56
2018-01-23T03:06:49.142Z,55.63
2018-01-23T03:07:20.769Z,55.57
2018-01-23T03:07:52.390Z,55.62
2018-01-23T03:08:24.013Z,55.59
2018-01-23T03:08:55.638Z,55.50
2018-01-23T03:09:27.259Z,55.49
2018-01-23T03:09:58.927Z,55.73
2018-01-23T03:10:30.553Z,55.52
2018-01-23T03:11:02.177Z,55.62
2018-01-23T03:11:33.814Z,55.55
2018-01-23T03:12:05.446Z,55.45
2018-01-23T03:12:37.069Z,55.54
2018-01-23T03:13:08.689Z,55.51
2018-01-23T03:13:40.309Z,55.50
2018-01-23T03:14:11.930Z,55.34
2018-01-23T03:14:43.594Z,55.29
2018-01-23T03:15:15.258Z,55.21
2018-01-23T03:15:46.881Z,55.21
2018-01-23T03:16:18.510Z,55.20
2018-01-23T03:16:50.137Z,55.22
2018-01-23T03:17:21.758Z,55.23
2018-01-23T03:17:53.386Z,55.31
2018-01-23T03:18:25.019Z,55.17
2018-01-23T03:18:56.661Z,55.25
2018-01-23T03:19:28.309Z,55.25
2018-01-23T03:19:59.978Z,55.18
2018-01-23T03:20:31.601Z,55.31
2018-01-23T03:21:03.230Z,55.09
2018-01-23T03:21:34.849Z,55.14
2018-01-23T03:22:06.470Z,55.03
2018-01-23T03:22:38.090Z,55.14
2018-01-23T03:23:09.718Z,55.20
2018-01-23T03:23:41.373Z,55.20
2018-01-23T03:24:13.049Z,55.18
2018-01-23T03:24:44.678Z,55.17
2018-01-23T03:25:16.301Z,55.12
2018-01-23T03:25:47.934Z,55.14
2018-01-23T03:26:19.559Z,54.97
2018-01-23T03:26:51.190Z,55.11
2018-01-23T03:27:22.814Z,55.15
2018-01-23T03:27:54.441Z,55.00
2018-01-23T03:28:26.070Z,54.99
2018-01-23T03:28:57.698Z,55.26
2018-01-23T03:29:29.366Z,55.29
2018-01-23T03:30:00.990Z,55.19
2018-01-23T03:30:32.622Z,55.28
2018-01-23T03:31:04.246Z,55.32
2018-01-23T03:31:35.874Z,55.41
2018-01-23T03:32:07.567Z,55.53
2018-01-23T03:32:39.190Z,55.50
2018-01-23T03:33:10.846Z,55.38
2018-01-23T03:33:42.481Z,55.22
2018-01-23T03:34:14.105Z,55.25
2018-01-23T03:34:45.734Z,55.12
2018-01-23T03:35:17.361Z,55.24
2018-01-23T03:35:49.025Z,55.15
2018-01-23T03:36:20.646Z,55.12
2018-01-23T03:36:52.313Z,55.05
2018-01-23T03:37:23.942Z,55.03
2018-01-23T03:37:55.574Z,55.01
2018-01-23T03:38:27.197Z,55.05
2018-01-23T03:38:58.825Z,54.99
2018-01-23T03:39:30.454Z,55.14
2018-01-23T03:40:02.083Z,55.14
2018-01-23T03:40:33.707Z,54.97
2018-01-23T03:41:05.334Z,55.03
2018-01-23T03:41:36.953Z,55.20
2018-01-23T03:42:08.621Z,55.24
2018-01-23T03:42:40.245Z,55.22
2018-01-23T03:43:11.870Z,55.22
2018-01-23T03:43:43.495Z,55.08
2018-01-23T03:44:15.117Z,55.11
2018-01-23T03:44:46.742Z,55.25
2018-01-23T03:45:18.370Z,55.25
2018-01-23T03:45:49.997Z,55.18
2018-01-23T03:46:21.661Z,55.25
2018-01-23T03:46:53.333Z,55.02
2018-01-23T03:47:24.961Z,55.10
2018-01-23T03:47:56.582Z,55.02
2018-01-23T03:48:28.209Z,55.17
2018-01-23T03:48:59.829Z,55.03
2018-01-23T03:49:31.455Z,55.07
2018-01-23T03:50:03.113Z,54.98
2018-01-23T03:50:34.733Z,55.07
2018-01-23T03:51:06.430Z,55.12
2018-01-23T03:51:38.054Z,55.12
2018-01-23T03:52:09.682Z,55.11
2018-01-23T03:52:41.310Z,54.91
2018-01-23T03:53:12.933Z,54.97
2018-01-23T03:53:44.553Z,54.98
2018-01-23T03:54:16.185Z,55.02
2018-01-23T03:54:47.814Z,55.11
2018-01-23T03:55:19.445Z,54.92
2018-01-23T03:55:51.069Z,54.92
2018-01-23T03:56:22.697Z,55.00
2018-01-23T03:56:54.326Z,55.01
2018-01-23T03:57:26.014Z,55.02
2018-01-23T03:57:57.637Z,54.82
2018-01-23T03:58:29.266Z,55.08
2018-01-23T03:59:00.894Z,54.88
2018-01-23T03:59:32.545Z,54.85
2018-01-23T04:00:04.193Z,54.98
2018-01-23T04:00:35.841Z,54.77
2018-01-23T04:01:07.489Z,55.09
2018-01-23T04:01:39.137Z,54.84
2018-01-23T04:02:10.877Z,54.77
2018-01-23T04:02:42.525Z,54.80
2018-01-23T04:03:14.173Z,54.76
2018-01-23T04:03:45.820Z,54.77
2018-01-23T04:04:17.460Z,54.86
2018-01-23T04:04:49.109Z,54.90
2018-01-23T04:05:20.796Z,54.80
2018-01-23T04:05:52.449Z,54.88
2018-01-23T04:06:24.097Z,54.75
2018-01-23T04:06:55.749Z,54.75
2018-01-23T04:07:27.392Z,54.77
2018-01-23T04:07:59.084Z,54.74
2018-01-23T04:08:30.729Z,54.90
2018-01-23T04:09:02.372Z,55.02
2018-01-23T04:09:34.017Z,54.94
2018-01-23T04:10:05.665Z,54.88
2018-01-23T04:10:37.322Z,54.83
2018-01-23T04:11:08.973Z,54.89
2018-01-23T04:11:40.620Z,54.93
2018-01-23T04:12:12.269Z,55.01
2018-01-23T04:12:43.921Z,55.00
2018-01-23T04:13:15.609Z,55.21
2018-01-23T04:13:47.257Z,55.02
2018-01-23T04:14:18.981Z,55.05
2018-01-23T04:14:50.629Z,55.07
2018-01-23T04:15:22.433Z,55.12
2018-01-23T04:15:54.077Z,55.10
2018-01-23T04:16:25.724Z,54.99
2018-01-23T04:16:57.379Z,55.10
2018-01-23T04:17:29.029Z,54.93
2018-01-23T04:18:00.677Z,54.98
2018-01-23T04:18:32.325Z,54.86
2018-01-23T04:19:03.976Z,54.98
2018-01-23T04:19:35.633Z,55.07
2018-01-23T04:20:07.281Z,54.92
2018-01-23T04:20:38.970Z,54.98
2018-01-23T04:21:10.617Z,55.11
2018-01-23T04:21:42.269Z,55.01
2018-01-23T04:22:13.917Z,55.11
2018-01-23T04:22:45.605Z,54.91
2018-01-23T04:23:17.256Z,55.14
2018-01-23T04:23:48.905Z,54.94
2018-01-23T04:24:20.563Z,55.13
2018-01-23T04:24:52.213Z,55.20
2018-01-23T04:25:23.865Z,55.16
2018-01-23T04:25:55.549Z,55.09
2018-01-23T04:26:27.197Z,55.07
2018-01-23T04:26:58.853Z,54.97
2018-01-23T04:27:30.505Z,55.00
2018-01-23T04:28:02.201Z,54.95
2018-01-23T04:28:33.853Z,55.26
2018-01-23T04:29:05.504Z,54.95
2018-01-23T04:29:37.153Z,55.30
2018-01-23T04:30:08.801Z,54.97
2018-01-23T04:30:40.449Z,54.97
2018-01-23T04:31:12.177Z,55.14
2018-01-23T04:31:43.904Z,55.11
2018-01-23T04:32:15.553Z,55.19
2018-01-23T04:32:47.201Z,55.20
2018-01-23T04:33:18.849Z,55.32
2018-01-23T04:33:50.504Z,55.30
2018-01-23T04:34:22.217Z,55.25
2018-01-23T04:34:53.869Z,55.26
2018-01-23T04:35:25.513Z,55.26
2018-01-23T04:35:57.161Z,55.43
2018-01-23T04:36:28.813Z,55.32
2018-01-23T04:37:00.685Z,55.46
2018-01-23T04:37:32.446Z,55.46
2018-01-23T04:38:04.093Z,55.49
2018-01-23T04:38:35.741Z,55.60
2018-01-23T04:39:07.392Z,55.70
2018-01-23T04:39:39.047Z,55.57
2018-01-23T04:40:10.758Z,55.45
2018-01-23T04:40:42.404Z,55.56
2018-01-23T04:41:14.048Z,55.47
2018-01-23T04:41:45.697Z,55.53
2018-01-23T04:42:17.393Z,55.56
2018-01-23T04:42:49.041Z,55.49
2018-01-23T04:43:20.694Z,55.46
2018-01-23T04:43:52.412Z,55.47
2018-01-23T04:44:24.061Z,55.41
2018-01-23T04:44:55.709Z,55.47
2018-01-23T04:45:27.357Z,55.44
2018-01-23T04:45:59.005Z,55.44
2018-01-23T04:46:30.653Z,55.44
2018-01-23T04:47:02.301Z,55.41
2018-01-23T04:47:33.949Z,55.44
2018-01-23T04:48:05.597Z,55.42
2018-01-23T04:48:37.244Z,55.46
2018-01-23T04:49:08.893Z,55.41
2018-01-23T04:49:40.540Z,55.32
2018-01-23T04:50:12.189Z,55.43
2018-01-23T04:50:43.885Z,55.33
2018-01-23T04:51:15.532Z,55.27
2018-01-23T04:51:47.185Z,55.30
2018-01-23T04:52:18.838Z,55.46
2018-01-23T04:52:50.493Z,55.44
2018-01-23T04:53:22.141Z,55.34
2018-01-23T04:53:53.780Z,55.42
2018-01-23T04:54:25.430Z,55.47
2018-01-23T04:54:57.084Z,55.50
2018-01-23T04:55:28.781Z,55.33
2018-01-23T04:56:00.493Z,55.27
2018-01-23T04:56:32.140Z,55.26
2018-01-23T04:57:03.858Z,55.26
2018-01-23T04:57:35.504Z,55.26
2018-01-23T04:58:07.149Z,55.19
2018-01-23T04:58:38.806Z,55.28
2018-01-23T04:59:10.452Z,55.22
2018-01-23T04:59:42.097Z,55.19
2018-01-23T05:00:13.745Z,55.18
2018-01-23T05:00:45.393Z,55.22
2018-01-23T05:01:17.084Z,55.14
2018-01-23T05:01:48.732Z,55.06
2018-01-23T05:02:20.381Z,55.07
2018-01-23T05:02:52.029Z,55.11
2018-01-23T05:03:23.678Z,55.11
2018-01-23T05:03:55.333Z,55.13
2018-01-23T05:04:26.980Z,55.13
2018-01-23T05:04:58.629Z,55.12
2018-01-23T05:05:30.325Z,55.01
2018-01-23T05:06:01.973Z,54.95
2018-01-23T05:06:33.625Z,55.08
2018-01-23T05:07:05.273Z,55.18
2018-01-23T05:07:36.920Z,55.10
2018-01-23T05:08:08.569Z,55.08
2018-01-23T05:08:40.261Z,55.03
2018-01-23T05:09:11.914Z,55.16
2018-01-23T05:09:43.678Z,55.17
2018-01-23T05:10:15.329Z,55.14
2018-01-23T05:10:46.982Z,55.17
2018-01-23T05:11:18.633Z,55.17
2018-01-23T05:11:50.281Z,55.12
2018-01-23T05:12:21.933Z,55.31
2018-01-23T05:12:53.630Z,55.21
2018-01-23T05:13:25.277Z,55.16
2018-01-23T05:13:56.925Z,55.16
2018-01-23T05:14:28.578Z,55.20
2018-01-23T05:15:00.229Z,55.14
2018-01-23T05:15:31.913Z,55.20
2018-01-23T05:16:03.565Z,55.15
2018-01-23T05:16:35.212Z,55.22
2018-01-23T05:17:06.861Z,55.18
2018-01-23T05:17:38.611Z,55.28
2018-01-23T05:18:10.300Z,55.26
2018-01-23T05:18:41.945Z,55.33
2018-01-23T05:19:13.596Z,55.23
2018-01-23T05:19:45.241Z,55.18
2018-01-23T05:20:16.954Z,55.36
2018-01-23T05:20:48.605Z,55.32
2018-01-23T05:21:20.261Z,55.31
2018-01-23T05:21:51.905Z,55.42
2018-01-23T05:22:23.550Z,55.28
2018-01-23T05:22:55.229Z,55.32
2018-01-23T05:23:26.877Z,55.30
2018-01-23T05:23:58.525Z,55.91
2018-01-23T05:24:30.285Z,55.69
2018-01-23T05:25:01.936Z,55.62
2018-01-23T05:25:33.645Z,55.70
2018-01-23T05:26:05.356Z,55.48
2018-01-23T05:26:37.005Z,55.56
2018-01-23T05:27:08.654Z,55.64
2018-01-23T05:27:40.305Z,55.48
2018-01-23T05:28:11.953Z,55.45
2018-01-23T05:28:43.601Z,55.38
2018-01-23T05:29:15.248Z,55.38
2018-01-23T05:29:46.897Z,55.53
2018-01-23T05:30:18.540Z,55.48
2018-01-23T05:30:50.245Z,55.42
2018-01-23T05:31:21.932Z,55.38
2018-01-23T05:31:53.590Z,55.39
2018-01-23T05:32:25.274Z,55.45
2018-01-23T05:32:56.921Z,55.39
2018-01-23T05:33:28.570Z,55.47
2018-01-23T05:34:00.216Z,55.46
2018-01-23T05:34:31.865Z,55.49
2018-01-23T05:35:03.513Z,55.52
2018-01-23T05:35:35.161Z,55.51
2018-01-23T05:36:06.857Z,55.92
2018-01-23T05:36:38.505Z,55.88
2018-01-23T05:37:10.186Z,55.70
2018-01-23T05:37:41.836Z,55.69
2018-01-23T05:38:13.484Z,55.70
2018-01-23T05:38:45.132Z,55.61
2018-01-23T05:39:16.777Z,55.61
2018-01-23T05:39:48.435Z,55.69
2018-01-23T05:40:20.084Z,55.62
2018-01-23T05:40:51.729Z,55.54
2018-01-23T05:41:23.417Z,55.62
2018-01-23T05:41:55.065Z,55.67
2018-01-23T05:42:26.713Z,55.63
2018-01-23T05:42:58.369Z,55.61
2018-01-23T05:43:30.076Z,55.63
2018-01-23T05:44:01.737Z,55.57
2018-01-23T05:44:33.389Z,55.54
2018-01-23T05:45:05.038Z,55.74
2018-01-23T05:45:36.745Z,55.78
2018-01-23T05:46:08.404Z,55.78
2018-01-23T05:46:40.053Z,55.68
2018-01-23T05:47:11.701Z,55.67
2018-01-23T05:47:43.452Z,55.67
2018-01-23T05:48:15.109Z,56.17
2018-01-23T05:48:46.752Z,56.39
2018-01-23T05:49:18.401Z,56.24
2018-01-23T05:49:50.049Z,56.34
2018-01-23T05:50:21.697Z,56.44
2018-01-23T05:50:53.384Z,56.37
2018-01-23T05:51:25.032Z,56.35
2018-01-23T05:51:56.677Z,56.31
2018-01-23T05:52:28.346Z,56.24
2018-01-23T05:52:59.997Z,56.34
2018-01-23T05:53:31.653Z,56.32
2018-01-23T05:54:03.305Z,56.17
2018-01-23T05:54:34.958Z,56.43
2018-01-23T05:55:06.614Z,56.35
2018-01-23T05:55:38.274Z,56.11
2018-01-23T05:56:09.969Z,56.38
2018-01-23T05:56:41.625Z,56.59
2018-01-23T05:57:13.276Z,56.42
2018-01-23T05:57:44.925Z,56.80
2018-01-23T05:58:16.573Z,56.52
2018-01-23T05:58:48.221Z,56.66
2018-01-23T05:59:19.864Z,56.71
2018-01-23T05:59:51.512Z,56.61
2018-01-23T06:00:23.161Z,56.63
2018-01-23T06:00:54.809Z,56.55
2018-01-23T06:01:26.513Z,56.73
2018-01-23T06:01:58.160Z,56.75
2018-01-23T06:02:29.804Z,56.58
2018-01-23T06:03:01.453Z,56.52
2018-01-23T06:03:33.105Z,56.58
2018-01-23T06:04:04.752Z,56.53
2018-01-23T06:04:36.404Z,56.61
2018-01-23T06:05:08.053Z,56.43
2018-01-23T06:05:39.696Z,56.43
2018-01-23T06:06:11.373Z,56.38
2018-01-23T06:06:43.021Z,56.39
2018-01-23T06:07:14.670Z,56.38
2018-01-23T06:07:46.323Z,56.48
2018-01-23T06:08:18.004Z,56.50
2018-01-23T06:08:49.652Z,56.45
2018-01-23T06:09:21.296Z,56.37
2018-01-23T06:09:52.945Z,56.50
2018-01-23T06:10:24.597Z,56.41
2018-01-23T06:10:56.306Z,56.24
2018-01-23T06:11:27.984Z,56.38
2018-01-23T06:11:59.632Z,56.49
2018-01-23T06:12:31.356Z,56.57
2018-01-23T06:13:03.006Z,56.44
2018-01-23T06:13:34.657Z,56.38
2018-01-23T06:14:06.305Z,56.42
2018-01-23T06:14:37.952Z,56.51
2018-01-23T06:15:09.600Z,56.36
2018-01-23T06:15:41.249Z,56.49
2018-01-23T06:16:13.027Z,56.39
2018-01-23T06:16:44.677Z,56.32
2018-01-23T06:17:16.325Z,56.33
2018-01-23T06:17:48.094Z,56.22
2018-01-23T06:18:19.736Z,56.22
2018-01-23T06:18:51.392Z,56.21
2018-01-23T06:19:23.042Z,56.29
2018-01-23T06:19:54.689Z,56.00
2018-01-23T06:20:26.337Z,56.09
2018-01-23T06:20:57.985Z,56.06
2018-01-23T06:21:29.632Z,56.19
2018-01-23T06:22:01.285Z,56.01
2018-01-23T06:22:32.933Z,55.85
2018-01-23T06:23:04.629Z,55.90
2018-01-23T06:23:36.277Z,55.88
2018-01-23T06:24:07.925Z,56.04
2018-01-23T06:24:39.573Z,56.01
2018-01-23T06:25:11.221Z,55.97
2018-01-23T06:25:42.873Z,56.01
2018-01-23T06:26:14.570Z,55.86
2018-01-23T06:26:46.205Z,55.82
2018-01-23T06:27:17.885Z,55.81
2018-01-23T06:27:49.533Z,55.92
2018-01-23T06:28:21.257Z,55.90
2018-01-23T06:28:52.904Z,55.78
2018-01-23T06:29:24.552Z,55.84
2018-01-23T06:29:56.196Z,55.90
2018-01-23T06:30:27.841Z,55.78
2018-01-23T06:30:59.489Z,56.04
2018-01-23T06:31:31.148Z,55.90
2018-01-23T06:32:02.797Z,56.03
2018-01-23T06:32:34.497Z,55.90
2018-01-23T06:33:06.152Z,56.21
2018-01-23T06:33:37.872Z,56.06
2018-01-23T06:34:09.570Z,55.89
2018-01-23T06:34:41.221Z,56.04
2018-01-23T06:35:12.873Z,56.07
2018-01-23T06:35:44.520Z,56.15
2018-01-23T06:36:16.169Z,56.08
2018-01-23T06:36:47.813Z,55.90
2018-01-23T06:37:19.457Z,55.89
2018-01-23T06:37:51.118Z,56.01
2018-01-23T06:38:22.766Z,56.00
2018-01-23T06:38:54.408Z,55.83
2018-01-23T06:39:26.057Z,55.89
2018-01-23T06:39:57.705Z,55.96
2018-01-23T06:40:29.358Z,55.92
2018-01-23T06:41:01.008Z,55.87
2018-01-23T06:41:32.657Z,56.46
2018-01-23T06:42:04.304Z,56.36
2018-01-23T06:42:35.961Z,56.40
2018-01-23T06:43:07.609Z,56.39
2018-01-23T06:43:39.261Z,56.39
2018-01-23T06:44:10.904Z,56.39
2018-01-23T06:44:42.552Z,56.53
2018-01-23T06:45:14.209Z,56.52
2018-01-23T06:45:45.857Z,56.48
2018-01-23T06:46:17.505Z,56.43
2018-01-23T06:46:49.161Z,56.34
2018-01-23T06:47:20.810Z,56.33